createdAt,value
2022-08-31T00:28:50.624Z,1017.32
2022-08-31T00:58:54.274Z,1017.24
2022-08-31T01:28:50.625Z,1017.15
2022-08-31T01:58:50.644Z,1017.26
2022-08-31T02:28:50.650Z,1017.15
2022-08-31T02:58:50.635Z,1017.12
2022-08-31T03:28:50.640Z,1017.04
2022-08-31T03:58:50.630Z,1017.02
2022-08-31T04:28:50.654Z,1017.2
2022-08-31T04:58:50.652Z,1017.26
2022-08-31T05:28:50.657Z,1017.55
2022-08-31T05:58:50.667Z,1017.6
2022-08-31T06:28:50.676Z,1017.67
2022-08-31T06:58:53.703Z,1017.79
2022-08-31T07:28:50.689Z,1017.92
2022-08-31T07:58:50.707Z,1018.11
2022-08-31T08:28:50.704Z,1018.25
2022-08-31T08:58:50.726Z,1018.28
2022-08-31T09:28:50.734Z,1018.28
2022-08-31T09:58:50.712Z,1018.18
2022-08-31T10:28:50.729Z,1018.13
2022-08-31T10:58:50.727Z,1018.23
2022-08-31T11:28:50.729Z,1018.14
2022-08-31T11:58:50.723Z,1018.04
2022-08-31T12:28:50.724Z,1018.08
2022-08-31T12:58:50.745Z,1018.06
2022-08-31T13:28:50.734Z,1017.98
2022-08-31T13:58:50.742Z,1018.01
2022-08-31T14:28:50.765Z,1017.81
2022-08-31T14:58:50.748Z,1017.81
2022-08-31T15:28:50.772Z,1017.9
2022-08-31T15:58:50.771Z,1017.98
2022-08-31T16:28:50.771Z,1017.95
2022-08-31T16:58:52.612Z,1018.04
2022-08-31T17:28:50.766Z,1018.22
2022-08-31T17:58:50.777Z,1018.49
2022-08-31T18:28:50.790Z,1018.88
2022-08-31T19:24:45.289Z,1019.11
2022-08-31T19:54:45.151Z,1019.09
2022-08-31T20:24:45.359Z,1019.03
2022-08-31T20:54:45.158Z,1019.22
2022-08-31T21:24:45.150Z,1019.15
2022-08-31T21:54:45.169Z,1019.13
2022-08-31T22:24:45.173Z,1019.12
2022-08-31T22:54:45.194Z,1019.02
2022-08-31T23:24:45.193Z,1019.05
2022-08-31T23:54:45.206Z,1018.8
